Beaver County Airport
KBVI : now visible

Airfield :











YOU CAN JOIN US ON...

 
LOGIN :

Register | Disclaimer

   EN    FR    IT 

 









Legend :    VFR   Marginal VFR   IFR   Intensive IFR   Very Intensive IFR
Visi :
Ceiling :
>= 8 km
>= 3000ft
5 to 8 km
1000 to 3000 ft
1500m to 5 km
500 to 1000 ft
800 to 1500m
200 to 500 ft
< 800m
< 200 ft
Symbols :   Thunderstorms  Fog  Heavy snow  Heavy precipitations  Wind > 20 kt






- Airport Elevation : 1253 ft


KBVI - Beaver County

CURRENT METAR :
  • 191615Z AUTO 00000KT 10SM SCT042 SCT050 29/13 A3010 RMK AO2 T02880133

EXPIRED METARs :
  • 191555Z AUTO 00000KT 10SM BKN042 BKN050 29/14 A3011 RMK AO2 T02910141
  • 191547Z AUTO 00000KT 10SM BKN040 29/14 A3011 RMK DENSITY ALT 2900.
  • 191535Z AUTO 24005KT 10SM SCT038 29/15 A3011 RMK AO2 T02870149
  • 191515Z AUTO 00000KT 10SM SCT033 SCT040 28/16 A3011 RMK AO2 T02760156
  • 191455Z AUTO 20005KT 10SM SCT033 27/16 A3011 RMK AO2 T02710158
  • 191435Z AUTO 00000KT 10SM CLR 27/16 A3012 RMK AO2 T02710160
  • 191415Z AUTO 00000KT 10SM CLR 26/18 A3011 RMK AO2 T02620175
  • 191355Z AUTO 00000KT 10SM CLR 25/17 A3011 RMK AO2 T02480173
  • 191335Z AUTO 00000KT 10SM CLR 24/17 A3011 RMK AO2 T02410173

TAF KBVI
Valid from the 19 at 12:00 until the 20 at 12:00 UTC


191120Z 1912/2012 VRB03KT P6SM SKC
FM200200 00000KT P6SM SCT100
KZOB FIR / North America



MET'MAP, your aeronautical weather chart ! - Copyright ORBIFLY December 2007 - Disclaimer

ORBIFLY MET'MAP TEAM :

Programming & Development : Alexandra Zaïnal
Original concept : Baudouin d'Aumeries
Technical & hardware support : Manuel Goepfert
Assistance : Marc-Olivier Méhu




SOURCES & CREDITS :

   NOAA       Earth
Advisory